sensor_id;sensor_type;location;lat;lon;timestamp;P1;durP1;ratioP1;P2;durP2;ratioP2
70369;SDS011;57790;51.356;-2.906;2022-09-29T00:01:35;3.73;;;0.87;;
70369;SDS011;57790;51.356;-2.906;2022-09-29T00:04:35;5.53;;;1.23;;
70369;SDS011;57790;51.356;-2.906;2022-09-29T00:07:35;3.17;;;0.73;;
70369;SDS011;57790;51.356;-2.906;2022-09-29T00:10:38;7.03;;;1.00;;
70369;SDS011;57790;51.356;-2.906;2022-09-29T00:13:39;3.83;;;0.75;;
70369;SDS011;57790;51.356;-2.906;2022-09-29T00:16:40;3.60;;;0.52;;
70369;SDS011;57790;51.356;-2.906;2022-09-29T00:19:40;3.03;;;0.77;;
70369;SDS011;57790;51.356;-2.906;2022-09-29T00:22:41;2.63;;;0.80;;
70369;SDS011;57790;51.356;-2.906;2022-09-29T00:25:41;2.27;;;0.60;;
70369;SDS011;57790;51.356;-2.906;2022-09-29T00:28:46;4.10;;;0.70;;
70369;SDS011;57790;51.356;-2.906;2022-09-29T00:31:48;4.13;;;0.60;;
70369;SDS011;57790;51.356;-2.906;2022-09-29T00:34:48;3.65;;;0.70;;
70369;SDS011;57790;51.356;-2.906;2022-09-29T00:37:50;3.57;;;0.60;;
70369;SDS011;57790;51.356;-2.906;2022-09-29T00:40:50;2.70;;;0.70;;
70369;SDS011;57790;51.356;-2.906;2022-09-29T00:43:52;3.10;;;0.60;;
70369;SDS011;57790;51.356;-2.906;2022-09-29T00:47:02;3.37;;;0.80;;
70369;SDS011;57790;51.356;-2.906;2022-09-29T00:50:08;2.33;;;0.60;;
70369;SDS011;57790;51.356;-2.906;2022-09-29T00:53:14;2.47;;;0.60;;
70369;SDS011;57790;51.356;-2.906;2022-09-29T00:56:16;2.75;;;0.70;;
70369;SDS011;57790;51.356;-2.906;2022-09-29T00:59:20;2.22;;;0.50;;
70369;SDS011;57790;51.356;-2.906;2022-09-29T01:02:29;2.90;;;0.50;;
70369;SDS011;57790;51.356;-2.906;2022-09-29T01:05:37;3.83;;;0.50;;
70369;SDS011;57790;51.356;-2.906;2022-09-29T01:08:46;3.67;;;0.80;;
70369;SDS011;57790;51.356;-2.906;2022-09-29T01:12:08;2.38;;;0.50;;
70369;SDS011;57790;51.356;-2.906;2022-09-29T01:15:09;2.60;;;0.57;;
70369;SDS011;57790;51.356;-2.906;2022-09-29T01:18:09;2.72;;;0.50;;
70369;SDS011;57790;51.356;-2.906;2022-09-29T01:21:19;2.27;;;0.50;;
70369;SDS011;57790;51.356;-2.906;2022-09-29T01:31:55;3.05;;;0.40;;
70369;SDS011;57790;51.356;-2.906;2022-09-29T01:38:30;5.00;;;0.60;;
70369;SDS011;57790;51.356;-2.906;2022-09-29T01:48:32;3.97;;;0.60;;
70369;SDS011;57790;51.356;-2.906;2022-09-29T01:51:39;3.00;;;0.50;;
70369;SDS011;57790;51.356;-2.906;2022-09-29T01:58:04;4.63;;;0.60;;
70369;SDS011;57790;51.356;-2.906;2022-09-29T02:01:09;3.55;;;0.70;;
70369;SDS011;57790;51.356;-2.906;2022-09-29T02:04:24;3.35;;;0.63;;
70369;SDS011;57790;51.356;-2.906;2022-09-29T02:07:33;4.20;;;0.60;;
70369;SDS011;57790;51.356;-2.906;2022-09-29T02:10:39;2.57;;;0.70;;
70369;SDS011;57790;51.356;-2.906;2022-09-29T02:13:57;6.03;;;0.70;;
70369;SDS011;57790;51.356;-2.906;2022-09-29T02:17:19;4.13;;;0.60;;
70369;SDS011;57790;51.356;-2.906;2022-09-29T02:20:28;5.07;;;0.80;;
70369;SDS011;57790;51.356;-2.906;2022-09-29T02:23:30;3.63;;;0.70;;
70369;SDS011;57790;51.356;-2.906;2022-09-29T02:26:31;7.47;;;0.60;;
70369;SDS011;57790;51.356;-2.906;2022-09-29T02:29:33;4.32;;;0.60;;
70369;SDS011;57790;51.356;-2.906;2022-09-29T02:32:35;5.27;;;0.70;;
70369;SDS011;57790;51.356;-2.906;2022-09-29T02:35:47;5.28;;;0.70;;
70369;SDS011;57790;51.356;-2.906;2022-09-29T02:39:03;3.93;;;0.60;;
70369;SDS011;57790;51.356;-2.906;2022-09-29T02:42:30;3.33;;;0.60;;
70369;SDS011;57790;51.356;-2.906;2022-09-29T02:48:53;4.45;;;0.60;;
70369;SDS011;57790;51.356;-2.906;2022-09-29T02:52:07;4.35;;;0.68;;
70369;SDS011;57790;51.356;-2.906;2022-09-29T02:59:06;3.67;;;0.63;;
70369;SDS011;57790;51.356;-2.906;2022-09-29T03:02:11;5.68;;;0.60;;
70369;SDS011;57790;51.356;-2.906;2022-09-29T03:05:15;4.53;;;0.60;;
70369;SDS011;57790;51.356;-2.906;2022-09-29T03:08:17;4.15;;;0.70;;
70369;SDS011;57790;51.356;-2.906;2022-09-29T03:11:18;5.47;;;0.70;;
70369;SDS011;57790;51.356;-2.906;2022-09-29T03:14:18;5.20;;;0.60;;
70369;SDS011;57790;51.356;-2.906;2022-09-29T03:17:18;4.30;;;0.70;;
70369;SDS011;57790;51.356;-2.906;2022-09-29T03:20:19;6.10;;;0.77;;
70369;SDS011;57790;51.356;-2.906;2022-09-29T03:23:20;5.85;;;0.80;;
70369;SDS011;57790;51.356;-2.906;2022-09-29T03:26:21;4.22;;;0.70;;
70369;SDS011;57790;51.356;-2.906;2022-09-29T03:29:22;3.33;;;0.70;;
70369;SDS011;57790;51.356;-2.906;2022-09-29T03:32:23;4.50;;;0.60;;
70369;SDS011;57790;51.356;-2.906;2022-09-29T03:35:23;5.10;;;0.70;;
70369;SDS011;57790;51.356;-2.906;2022-09-29T03:38:24;6.23;;;0.60;;
70369;SDS011;57790;51.356;-2.906;2022-09-29T03:41:24;5.13;;;0.60;;
70369;SDS011;57790;51.356;-2.906;2022-09-29T03:44:25;6.97;;;0.45;;
70369;SDS011;57790;51.356;-2.906;2022-09-29T03:47:25;3.53;;;0.70;;
70369;SDS011;57790;51.356;-2.906;2022-09-29T03:50:25;5.17;;;0.80;;
70369;SDS011;57790;51.356;-2.906;2022-09-29T03:53:26;3.83;;;0.50;;
70369;SDS011;57790;51.356;-2.906;2022-09-29T03:56:26;4.90;;;0.70;;
70369;SDS011;57790;51.356;-2.906;2022-09-29T03:59:27;5.15;;;0.70;;
70369;SDS011;57790;51.356;-2.906;2022-09-29T04:02:27;4.33;;;0.87;;
70369;SDS011;57790;51.356;-2.906;2022-09-29T04:05:28;5.23;;;0.93;;
70369;SDS011;57790;51.356;-2.906;2022-09-29T04:08:29;7.65;;;1.10;;
70369;SDS011;57790;51.356;-2.906;2022-09-29T04:11:29;5.23;;;1.20;;
70369;SDS011;57790;51.356;-2.906;2022-09-29T04:14:30;4.47;;;1.10;;
70369;SDS011;57790;51.356;-2.906;2022-09-29T04:17:30;8.93;;;1.90;;
70369;SDS011;57790;51.356;-2.906;2022-09-29T04:20:31;8.40;;;1.97;;
70369;SDS011;57790;51.356;-2.906;2022-09-29T04:23:32;8.98;;;2.15;;
70369;SDS011;57790;51.356;-2.906;2022-09-29T04:26:33;6.57;;;1.80;;
70369;SDS011;57790;51.356;-2.906;2022-09-29T04:29:33;6.53;;;1.85;;
70369;SDS011;57790;51.356;-2.906;2022-09-29T04:32:34;7.97;;;1.93;;
70369;SDS011;57790;51.356;-2.906;2022-09-29T04:35:34;8.77;;;1.70;;
70369;SDS011;57790;51.356;-2.906;2022-09-29T04:38:34;5.97;;;1.63;;
70369;SDS011;57790;51.356;-2.906;2022-09-29T04:41:35;4.80;;;1.30;;
70369;SDS011;57790;51.356;-2.906;2022-09-29T04:44:38;8.27;;;1.42;;
70369;SDS011;57790;51.356;-2.906;2022-09-29T04:47:38;7.50;;;1.20;;
70369;SDS011;57790;51.356;-2.906;2022-09-29T04:50:39;6.57;;;1.47;;
70369;SDS011;57790;51.356;-2.906;2022-09-29T04:53:40;4.47;;;0.90;;
70369;SDS011;57790;51.356;-2.906;2022-09-29T04:56:40;4.10;;;0.90;;
70369;SDS011;57790;51.356;-2.906;2022-09-29T04:59:41;6.53;;;1.02;;
70369;SDS011;57790;51.356;-2.906;2022-09-29T05:02:41;4.07;;;0.80;;
70369;SDS011;57790;51.356;-2.906;2022-09-29T05:05:42;4.67;;;0.80;;
70369;SDS011;57790;51.356;-2.906;2022-09-29T05:08:42;5.93;;;1.00;;
70369;SDS011;57790;51.356;-2.906;2022-09-29T05:11:43;3.90;;;0.90;;
70369;SDS011;57790;51.356;-2.906;2022-09-29T05:14:43;4.30;;;0.90;;
70369;SDS011;57790;51.356;-2.906;2022-09-29T05:17:44;2.67;;;0.70;;
70369;SDS011;57790;51.356;-2.906;2022-09-29T05:20:44;3.57;;;0.80;;
70369;SDS011;57790;51.356;-2.906;2022-09-29T05:23:44;4.47;;;0.90;;
70369;SDS011;57790;51.356;-2.906;2022-09-29T05:26:45;2.60;;;0.65;;
70369;SDS011;57790;51.356;-2.906;2022-09-29T05:29:45;4.37;;;0.80;;
70369;SDS011;57790;51.356;-2.906;2022-09-29T05:32:46;3.80;;;0.70;;
70369;SDS011;57790;51.356;-2.906;2022-09-29T05:35:46;3.60;;;0.70;;
70369;SDS011;57790;51.356;-2.906;2022-09-29T05:38:47;3.37;;;0.73;;
70369;SDS011;57790;51.356;-2.906;2022-09-29T05:41:47;3.47;;;0.90;;
70369;SDS011;57790;51.356;-2.906;2022-09-29T05:44:48;3.97;;;0.97;;
70369;SDS011;57790;51.356;-2.906;2022-09-29T05:47:51;2.87;;;0.90;;
70369;SDS011;57790;51.356;-2.906;2022-09-29T05:50:53;2.40;;;0.60;;
70369;SDS011;57790;51.356;-2.906;2022-09-29T05:53:54;2.03;;;0.70;;
70369;SDS011;57790;51.356;-2.906;2022-09-29T05:56:55;4.90;;;0.90;;
70369;SDS011;57790;51.356;-2.906;2022-09-29T05:59:55;4.03;;;0.82;;
70369;SDS011;57790;51.356;-2.906;2022-09-29T06:02:59;4.90;;;0.83;;
70369;SDS011;57790;51.356;-2.906;2022-09-29T06:06:03;3.65;;;1.02;;
70369;SDS011;57790;51.356;-2.906;2022-09-29T06:09:05;3.25;;;0.77;;
70369;SDS011;57790;51.356;-2.906;2022-09-29T06:12:06;5.40;;;1.03;;
70369;SDS011;57790;51.356;-2.906;2022-09-29T06:15:07;5.57;;;1.13;;
70369;SDS011;57790;51.356;-2.906;2022-09-29T06:18:07;4.53;;;1.07;;
70369;SDS011;57790;51.356;-2.906;2022-09-29T06:21:09;4.85;;;1.30;;
70369;SDS011;57790;51.356;-2.906;2022-09-29T06:24:11;5.07;;;1.27;;
70369;SDS011;57790;51.356;-2.906;2022-09-29T06:27:11;5.03;;;1.33;;
70369;SDS011;57790;51.356;-2.906;2022-09-29T06:30:12;4.43;;;1.20;;
70369;SDS011;57790;51.356;-2.906;2022-09-29T06:33:12;4.57;;;1.30;;
70369;SDS011;57790;51.356;-2.906;2022-09-29T06:39:43;5.53;;;0.90;;
70369;SDS011;57790;51.356;-2.906;2022-09-29T06:42:43;4.00;;;0.73;;
70369;SDS011;57790;51.356;-2.906;2022-09-29T06:45:44;7.77;;;1.30;;
70369;SDS011;57790;51.356;-2.906;2022-09-29T06:48:45;3.90;;;1.35;;
70369;SDS011;57790;51.356;-2.906;2022-09-29T06:51:45;4.73;;;1.20;;
70369;SDS011;57790;51.356;-2.906;2022-09-29T06:54:46;5.28;;;1.20;;
70369;SDS011;57790;51.356;-2.906;2022-09-29T06:57:47;7.03;;;1.00;;
70369;SDS011;57790;51.356;-2.906;2022-09-29T07:00:52;4.22;;;1.10;;
70369;SDS011;57790;51.356;-2.906;2022-09-29T07:03:54;8.35;;;1.27;;
70369;SDS011;57790;51.356;-2.906;2022-09-29T07:06:55;4.33;;;1.00;;
70369;SDS011;57790;51.356;-2.906;2022-09-29T07:09:55;5.60;;;1.30;;
70369;SDS011;57790;51.356;-2.906;2022-09-29T07:12:55;6.20;;;1.33;;
70369;SDS011;57790;51.356;-2.906;2022-09-29T07:16:01;4.53;;;1.10;;
70369;SDS011;57790;51.356;-2.906;2022-09-29T07:19:06;4.77;;;1.07;;
70369;SDS011;57790;51.356;-2.906;2022-09-29T07:22:06;3.63;;;0.93;;
70369;SDS011;57790;51.356;-2.906;2022-09-29T07:25:08;4.63;;;1.08;;
70369;SDS011;57790;51.356;-2.906;2022-09-29T07:28:09;4.73;;;1.07;;
70369;SDS011;57790;51.356;-2.906;2022-09-29T07:31:11;6.07;;;1.40;;
70369;SDS011;57790;51.356;-2.906;2022-09-29T07:34:13;5.97;;;1.33;;
70369;SDS011;57790;51.356;-2.906;2022-09-29T07:37:13;5.07;;;1.30;;
70369;SDS011;57790;51.356;-2.906;2022-09-29T07:40:14;7.80;;;1.80;;
70369;SDS011;57790;51.356;-2.906;2022-09-29T07:43:14;5.23;;;1.80;;
70369;SDS011;57790;51.356;-2.906;2022-09-29T07:46:15;6.13;;;1.73;;
70369;SDS011;57790;51.356;-2.906;2022-09-29T07:49:16;7.63;;;1.70;;
70369;SDS011;57790;51.356;-2.906;2022-09-29T07:52:16;8.60;;;2.43;;
70369;SDS011;57790;51.356;-2.906;2022-09-29T07:55:17;7.00;;;1.97;;
70369;SDS011;57790;51.356;-2.906;2022-09-29T07:58:19;5.88;;;2.00;;
70369;SDS011;57790;51.356;-2.906;2022-09-29T08:01:19;5.80;;;2.10;;
70369;SDS011;57790;51.356;-2.906;2022-09-29T08:04:20;6.23;;;2.10;;
70369;SDS011;57790;51.356;-2.906;2022-09-29T08:07:20;5.67;;;2.13;;
70369;SDS011;57790;51.356;-2.906;2022-09-29T08:10:21;5.73;;;1.40;;
70369;SDS011;57790;51.356;-2.906;2022-09-29T08:13:21;4.90;;;1.60;;
70369;SDS011;57790;51.356;-2.906;2022-09-29T08:16:21;8.20;;;1.93;;
70369;SDS011;57790;51.356;-2.906;2022-09-29T08:19:22;5.77;;;1.70;;
70369;SDS011;57790;51.356;-2.906;2022-09-29T08:22:24;7.75;;;1.52;;
70369;SDS011;57790;51.356;-2.906;2022-09-29T08:25:24;4.37;;;1.40;;
70369;SDS011;57790;51.356;-2.906;2022-09-29T08:28:25;5.93;;;1.60;;
70369;SDS011;57790;51.356;-2.906;2022-09-29T08:31:25;6.77;;;1.60;;
70369;SDS011;57790;51.356;-2.906;2022-09-29T08:34:26;7.23;;;1.50;;
70369;SDS011;57790;51.356;-2.906;2022-09-29T08:37:26;6.80;;;1.40;;
70369;SDS011;57790;51.356;-2.906;2022-09-29T08:40:27;4.57;;;1.50;;
70369;SDS011;57790;51.356;-2.906;2022-09-29T08:43:36;5.80;;;1.27;;
70369;SDS011;57790;51.356;-2.906;2022-09-29T08:46:41;6.25;;;1.38;;
70369;SDS011;57790;51.356;-2.906;2022-09-29T08:49:56;4.93;;;1.70;;
70369;SDS011;57790;51.356;-2.906;2022-09-29T08:53:09;6.28;;;1.35;;
70369;SDS011;57790;51.356;-2.906;2022-09-29T08:56:15;5.97;;;1.35;;
70369;SDS011;57790;51.356;-2.906;2022-09-29T08:59:17;3.80;;;1.40;;
70369;SDS011;57790;51.356;-2.906;2022-09-29T09:02:25;5.10;;;1.20;;
70369;SDS011;57790;51.356;-2.906;2022-09-29T09:09:17;4.93;;;1.30;;
70369;SDS011;57790;51.356;-2.906;2022-09-29T09:15:37;7.13;;;1.50;;
70369;SDS011;57790;51.356;-2.906;2022-09-29T09:18:47;5.57;;;1.50;;
70369;SDS011;57790;51.356;-2.906;2022-09-29T09:28:48;6.95;;;1.80;;
70369;SDS011;57790;51.356;-2.906;2022-09-29T09:31:58;5.03;;;1.42;;
70369;SDS011;57790;51.356;-2.906;2022-09-29T09:35:31;6.00;;;1.80;;
70369;SDS011;57790;51.356;-2.906;2022-09-29T09:42:29;5.50;;;1.27;;
70369;SDS011;57790;51.356;-2.906;2022-09-29T09:45:33;6.20;;;1.70;;
70369;SDS011;57790;51.356;-2.906;2022-09-29T09:48:40;6.95;;;1.52;;
70369;SDS011;57790;51.356;-2.906;2022-09-29T09:51:56;8.15;;;1.90;;
70369;SDS011;57790;51.356;-2.906;2022-09-29T09:55:18;8.10;;;1.60;;
70369;SDS011;57790;51.356;-2.906;2022-09-29T09:58:36;4.20;;;1.38;;
70369;SDS011;57790;51.356;-2.906;2022-09-29T10:01:55;3.95;;;1.25;;
70369;SDS011;57790;51.356;-2.906;2022-09-29T10:04:57;7.50;;;1.48;;
70369;SDS011;57790;51.356;-2.906;2022-09-29T10:07:57;5.50;;;1.37;;
70369;SDS011;57790;51.356;-2.906;2022-09-29T10:10:58;4.73;;;1.23;;
70369;SDS011;57790;51.356;-2.906;2022-09-29T10:17:23;8.20;;;1.63;;
70369;SDS011;57790;51.356;-2.906;2022-09-29T10:20:30;5.30;;;1.50;;
70369;SDS011;57790;51.356;-2.906;2022-09-29T10:23:34;7.20;;;1.40;;
70369;SDS011;57790;51.356;-2.906;2022-09-29T10:29:42;6.22;;;1.67;;
70369;SDS011;57790;51.356;-2.906;2022-09-29T10:32:51;6.75;;;1.85;;
70369;SDS011;57790;51.356;-2.906;2022-09-29T10:36:08;5.73;;;1.57;;
70369;SDS011;57790;51.356;-2.906;2022-09-29T10:39:10;6.68;;;2.40;;
70369;SDS011;57790;51.356;-2.906;2022-09-29T10:45:32;5.65;;;1.40;;
70369;SDS011;57790;51.356;-2.906;2022-09-29T10:48:46;9.20;;;1.88;;
70369;SDS011;57790;51.356;-2.906;2022-09-29T10:52:13;4.07;;;1.20;;
70369;SDS011;57790;51.356;-2.906;2022-09-29T10:55:32;3.22;;;1.20;;
70369;SDS011;57790;51.356;-2.906;2022-09-29T10:58:41;4.65;;;1.40;;
70369;SDS011;57790;51.356;-2.906;2022-09-29T11:01:45;5.63;;;1.30;;
70369;SDS011;57790;51.356;-2.906;2022-09-29T11:04:53;4.40;;;1.40;;
70369;SDS011;57790;51.356;-2.906;2022-09-29T11:07:57;4.47;;;1.30;;
70369;SDS011;57790;51.356;-2.906;2022-09-29T11:14:28;5.85;;;1.52;;
70369;SDS011;57790;51.356;-2.906;2022-09-29T11:17:38;14.47;;;1.67;;
70369;SDS011;57790;51.356;-2.906;2022-09-29T11:20:38;5.38;;;1.20;;
70369;SDS011;57790;51.356;-2.906;2022-09-29T11:23:44;5.43;;;1.45;;
70369;SDS011;57790;51.356;-2.906;2022-09-29T11:27:35;5.28;;;1.30;;
70369;SDS011;57790;51.356;-2.906;2022-09-29T11:30:14;5.80;;;1.67;;
70369;SDS011;57790;51.356;-2.906;2022-09-29T11:44:21;5.93;;;1.10;;
70369;SDS011;57790;51.356;-2.906;2022-09-29T12:04:45;4.05;;;1.10;;
70369;SDS011;57790;51.356;-2.906;2022-09-29T12:11:24;3.53;;;1.10;;
70369;SDS011;57790;51.356;-2.906;2022-09-29T12:17:44;3.55;;;1.20;;
70369;SDS011;57790;51.356;-2.906;2022-09-29T12:20:49;5.80;;;1.60;;
70369;SDS011;57790;51.356;-2.906;2022-09-29T12:23:53;4.57;;;1.30;;
70369;SDS011;57790;51.356;-2.906;2022-09-29T12:26:54;6.00;;;1.75;;
70369;SDS011;57790;51.356;-2.906;2022-09-29T12:29:57;4.72;;;1.40;;
70369;SDS011;57790;51.356;-2.906;2022-09-29T12:33:10;8.27;;;1.95;;
70369;SDS011;57790;51.356;-2.906;2022-09-29T12:36:28;5.88;;;1.83;;
70369;SDS011;57790;51.356;-2.906;2022-09-29T12:46:27;5.22;;;1.60;;
70369;SDS011;57790;51.356;-2.906;2022-09-29T12:49:45;6.57;;;1.55;;
70369;SDS011;57790;51.356;-2.906;2022-09-29T13:26:26;7.63;;;2.40;;
70369;SDS011;57790;51.356;-2.906;2022-09-29T13:29:47;6.40;;;2.33;;
70369;SDS011;57790;51.356;-2.906;2022-09-29T13:35:59;6.53;;;1.98;;
70369;SDS011;57790;51.356;-2.906;2022-09-29T13:39:02;5.22;;;2.00;;
70369;SDS011;57790;51.356;-2.906;2022-09-29T13:42:25;4.13;;;1.33;;
70369;SDS011;57790;51.356;-2.906;2022-09-29T13:45:36;5.40;;;1.80;;
70369;SDS011;57790;51.356;-2.906;2022-09-29T13:48:46;5.38;;;2.00;;
70369;SDS011;57790;51.356;-2.906;2022-09-29T14:01:47;8.00;;;2.00;;
70369;SDS011;57790;51.356;-2.906;2022-09-29T14:04:50;5.97;;;2.07;;
70369;SDS011;57790;51.356;-2.906;2022-09-29T14:11:04;5.65;;;1.55;;
70369;SDS011;57790;51.356;-2.906;2022-09-29T14:14:19;6.18;;;1.85;;
70369;SDS011;57790;51.356;-2.906;2022-09-29T14:17:30;5.53;;;1.70;;
70369;SDS011;57790;51.356;-2.906;2022-09-29T14:20:55;7.03;;;2.20;;
70369;SDS011;57790;51.356;-2.906;2022-09-29T14:23:57;6.47;;;2.20;;
70369;SDS011;57790;51.356;-2.906;2022-09-29T14:33:39;7.03;;;2.13;;
70369;SDS011;57790;51.356;-2.906;2022-09-29T14:36:42;5.43;;;1.63;;
70369;SDS011;57790;51.356;-2.906;2022-09-29T14:39:46;7.78;;;2.30;;
70369;SDS011;57790;51.356;-2.906;2022-09-29T14:43:11;7.47;;;2.70;;
70369;SDS011;57790;51.356;-2.906;2022-09-29T14:50:02;7.13;;;2.55;;
70369;SDS011;57790;51.356;-2.906;2022-09-29T15:00:15;7.87;;;2.47;;
70369;SDS011;57790;51.356;-2.906;2022-09-29T15:06:24;6.03;;;2.35;;
70369;SDS011;57790;51.356;-2.906;2022-09-29T15:09:26;6.30;;;2.42;;
70369;SDS011;57790;51.356;-2.906;2022-09-29T15:12:34;5.22;;;1.85;;
70369;SDS011;57790;51.356;-2.906;2022-09-29T15:15:35;7.33;;;2.70;;
70369;SDS011;57790;51.356;-2.906;2022-09-29T15:25:31;5.68;;;2.10;;
70369;SDS011;57790;51.356;-2.906;2022-09-29T15:28:38;7.55;;;2.72;;
70369;SDS011;57790;51.356;-2.906;2022-09-29T15:31:42;4.80;;;1.70;;
70369;SDS011;57790;51.356;-2.906;2022-09-29T15:34:44;6.88;;;2.50;;
70369;SDS011;57790;51.356;-2.906;2022-09-29T15:40:45;7.28;;;2.40;;
70369;SDS011;57790;51.356;-2.906;2022-09-29T15:47:00;7.07;;;2.05;;
70369;SDS011;57790;51.356;-2.906;2022-09-29T15:50:03;5.25;;;2.10;;
70369;SDS011;57790;51.356;-2.906;2022-09-29T15:53:15;6.22;;;2.30;;
70369;SDS011;57790;51.356;-2.906;2022-09-29T15:56:16;5.70;;;2.27;;
70369;SDS011;57790;51.356;-2.906;2022-09-29T15:59:16;8.07;;;2.20;;
70369;SDS011;57790;51.356;-2.906;2022-09-29T16:05:22;7.18;;;2.40;;
70369;SDS011;57790;51.356;-2.906;2022-09-29T16:08:25;6.57;;;2.17;;
70369;SDS011;57790;51.356;-2.906;2022-09-29T16:14:35;6.70;;;2.60;;
70369;SDS011;57790;51.356;-2.906;2022-09-29T16:17:36;6.77;;;2.40;;
70369;SDS011;57790;51.356;-2.906;2022-09-29T16:20:36;6.40;;;2.27;;
70369;SDS011;57790;51.356;-2.906;2022-09-29T16:23:41;6.40;;;2.20;;
70369;SDS011;57790;51.356;-2.906;2022-09-29T16:26:47;7.70;;;2.72;;
70369;SDS011;57790;51.356;-2.906;2022-09-29T16:30:03;7.75;;;2.60;;
70369;SDS011;57790;51.356;-2.906;2022-09-29T16:33:19;6.63;;;2.40;;
70369;SDS011;57790;51.356;-2.906;2022-09-29T16:39:24;9.27;;;2.93;;
70369;SDS011;57790;51.356;-2.906;2022-09-29T16:42:26;8.32;;;2.60;;
70369;SDS011;57790;51.356;-2.906;2022-09-29T16:45:28;6.43;;;2.35;;
70369;SDS011;57790;51.356;-2.906;2022-09-29T16:48:30;8.93;;;2.60;;
70369;SDS011;57790;51.356;-2.906;2022-09-29T16:51:39;7.73;;;2.60;;
70369;SDS011;57790;51.356;-2.906;2022-09-29T16:54:45;7.30;;;2.25;;
70369;SDS011;57790;51.356;-2.906;2022-09-29T17:00:54;6.95;;;2.42;;
70369;SDS011;57790;51.356;-2.906;2022-09-29T17:03:55;7.25;;;2.53;;
70369;SDS011;57790;51.356;-2.906;2022-09-29T17:06:56;7.03;;;2.50;;
70369;SDS011;57790;51.356;-2.906;2022-09-29T17:09:59;6.70;;;2.33;;
70369;SDS011;57790;51.356;-2.906;2022-09-29T17:13:00;7.25;;;2.65;;
70369;SDS011;57790;51.356;-2.906;2022-09-29T17:16:09;8.48;;;2.70;;
70369;SDS011;57790;51.356;-2.906;2022-09-29T17:19:17;8.67;;;3.00;;
70369;SDS011;57790;51.356;-2.906;2022-09-29T17:25:33;7.20;;;2.80;;
70369;SDS011;57790;51.356;-2.906;2022-09-29T17:28:35;7.35;;;2.80;;
70369;SDS011;57790;51.356;-2.906;2022-09-29T17:31:36;8.70;;;2.60;;
70369;SDS011;57790;51.356;-2.906;2022-09-29T17:34:36;7.53;;;2.40;;
70369;SDS011;57790;51.356;-2.906;2022-09-29T17:37:37;7.63;;;2.90;;
70369;SDS011;57790;51.356;-2.906;2022-09-29T17:44:01;8.43;;;2.63;;
70369;SDS011;57790;51.356;-2.906;2022-09-29T17:47:04;7.22;;;2.50;;
70369;SDS011;57790;51.356;-2.906;2022-09-29T17:53:24;8.57;;;2.72;;
70369;SDS011;57790;51.356;-2.906;2022-09-29T17:56:25;8.05;;;2.80;;
70369;SDS011;57790;51.356;-2.906;2022-09-29T17:59:25;8.77;;;3.07;;
70369;SDS011;57790;51.356;-2.906;2022-09-29T18:02:26;7.17;;;2.73;;
70369;SDS011;57790;51.356;-2.906;2022-09-29T18:05:27;8.02;;;3.20;;
70369;SDS011;57790;51.356;-2.906;2022-09-29T18:08:28;8.10;;;3.20;;
70369;SDS011;57790;51.356;-2.906;2022-09-29T18:11:28;9.47;;;3.20;;
70369;SDS011;57790;51.356;-2.906;2022-09-29T18:14:29;7.97;;;2.83;;
70369;SDS011;57790;51.356;-2.906;2022-09-29T18:17:34;7.87;;;3.00;;
70369;SDS011;57790;51.356;-2.906;2022-09-29T18:20:35;10.35;;;3.67;;
70369;SDS011;57790;51.356;-2.906;2022-09-29T18:23:35;9.30;;;3.53;;
70369;SDS011;57790;51.356;-2.906;2022-09-29T18:26:36;9.82;;;3.15;;
70369;SDS011;57790;51.356;-2.906;2022-09-29T18:29:38;9.27;;;3.10;;
70369;SDS011;57790;51.356;-2.906;2022-09-29T18:32:38;8.97;;;3.37;;
70369;SDS011;57790;51.356;-2.906;2022-09-29T18:35:39;10.77;;;3.40;;
70369;SDS011;57790;51.356;-2.906;2022-09-29T18:38:41;12.57;;;4.05;;
70369;SDS011;57790;51.356;-2.906;2022-09-29T18:41:42;11.53;;;3.97;;
70369;SDS011;57790;51.356;-2.906;2022-09-29T18:44:42;11.13;;;4.00;;
70369;SDS011;57790;51.356;-2.906;2022-09-29T18:47:43;10.48;;;4.32;;
70369;SDS011;57790;51.356;-2.906;2022-09-29T18:50:45;9.98;;;4.30;;
70369;SDS011;57790;51.356;-2.906;2022-09-29T18:53:47;13.13;;;4.17;;
70369;SDS011;57790;51.356;-2.906;2022-09-29T18:56:47;11.10;;;4.32;;
70369;SDS011;57790;51.356;-2.906;2022-09-29T18:59:47;12.20;;;4.73;;
70369;SDS011;57790;51.356;-2.906;2022-09-29T19:02:50;13.25;;;5.22;;
70369;SDS011;57790;51.356;-2.906;2022-09-29T19:05:51;12.93;;;5.07;;
70369;SDS011;57790;51.356;-2.906;2022-09-29T19:08:53;14.65;;;5.88;;
70369;SDS011;57790;51.356;-2.906;2022-09-29T19:11:54;14.67;;;5.97;;
70369;SDS011;57790;51.356;-2.906;2022-09-29T19:14:55;12.85;;;5.45;;
70369;SDS011;57790;51.356;-2.906;2022-09-29T19:17:59;12.90;;;5.23;;
70369;SDS011;57790;51.356;-2.906;2022-09-29T19:20:59;12.23;;;5.18;;
70369;SDS011;57790;51.356;-2.906;2022-09-29T19:23:59;14.90;;;6.63;;
70369;SDS011;57790;51.356;-2.906;2022-09-29T19:27:00;12.13;;;5.73;;
70369;SDS011;57790;51.356;-2.906;2022-09-29T19:30:01;13.63;;;5.50;;
70369;SDS011;57790;51.356;-2.906;2022-09-29T19:33:03;12.80;;;5.03;;
70369;SDS011;57790;51.356;-2.906;2022-09-29T19:36:06;11.32;;;5.00;;
70369;SDS011;57790;51.356;-2.906;2022-09-29T19:39:10;13.05;;;5.30;;
70369;SDS011;57790;51.356;-2.906;2022-09-29T19:42:11;13.98;;;5.60;;
70369;SDS011;57790;51.356;-2.906;2022-09-29T19:45:12;13.00;;;5.63;;
70369;SDS011;57790;51.356;-2.906;2022-09-29T19:48:14;13.07;;;5.43;;
70369;SDS011;57790;51.356;-2.906;2022-09-29T19:51:17;14.55;;;5.55;;
70369;SDS011;57790;51.356;-2.906;2022-09-29T19:54:37;12.02;;;5.63;;
70369;SDS011;57790;51.356;-2.906;2022-09-29T19:57:38;11.93;;;5.35;;
70369;SDS011;57790;51.356;-2.906;2022-09-29T20:00:42;10.90;;;4.90;;
70369;SDS011;57790;51.356;-2.906;2022-09-29T20:03:42;13.38;;;5.18;;
70369;SDS011;57790;51.356;-2.906;2022-09-29T20:06:46;12.73;;;6.57;;
70369;SDS011;57790;51.356;-2.906;2022-09-29T20:09:49;16.17;;;6.10;;
70369;SDS011;57790;51.356;-2.906;2022-09-29T20:12:50;12.52;;;6.22;;
70369;SDS011;57790;51.356;-2.906;2022-09-29T20:15:50;14.67;;;6.23;;
70369;SDS011;57790;51.356;-2.906;2022-09-29T20:18:51;14.93;;;6.67;;
70369;SDS011;57790;51.356;-2.906;2022-09-29T20:21:51;15.03;;;6.10;;
70369;SDS011;57790;51.356;-2.906;2022-09-29T20:24:52;14.00;;;6.72;;
70369;SDS011;57790;51.356;-2.906;2022-09-29T20:27:55;13.55;;;6.20;;
70369;SDS011;57790;51.356;-2.906;2022-09-29T20:31:00;15.93;;;6.50;;
70369;SDS011;57790;51.356;-2.906;2022-09-29T20:34:02;15.60;;;6.75;;
70369;SDS011;57790;51.356;-2.906;2022-09-29T20:37:02;16.67;;;6.93;;
70369;SDS011;57790;51.356;-2.906;2022-09-29T20:40:03;11.83;;;6.07;;
70369;SDS011;57790;51.356;-2.906;2022-09-29T20:43:04;14.43;;;6.40;;
70369;SDS011;57790;51.356;-2.906;2022-09-29T20:46:06;13.10;;;6.47;;
70369;SDS011;57790;51.356;-2.906;2022-09-29T20:49:07;13.33;;;6.23;;
70369;SDS011;57790;51.356;-2.906;2022-09-29T20:52:08;12.52;;;6.35;;
70369;SDS011;57790;51.356;-2.906;2022-09-29T20:55:08;14.33;;;6.57;;
70369;SDS011;57790;51.356;-2.906;2022-09-29T20:58:10;13.20;;;6.60;;
70369;SDS011;57790;51.356;-2.906;2022-09-29T21:04:17;18.00;;;6.95;;
70369;SDS011;57790;51.356;-2.906;2022-09-29T21:07:19;16.07;;;6.00;;
70369;SDS011;57790;51.356;-2.906;2022-09-29T21:10:34;15.13;;;6.10;;
70369;SDS011;57790;51.356;-2.906;2022-09-29T21:13:35;14.83;;;6.50;;
70369;SDS011;57790;51.356;-2.906;2022-09-29T21:16:36;12.65;;;6.13;;
70369;SDS011;57790;51.356;-2.906;2022-09-29T21:19:41;13.25;;;6.13;;
70369;SDS011;57790;51.356;-2.906;2022-09-29T21:22:41;13.87;;;6.60;;
70369;SDS011;57790;51.356;-2.906;2022-09-29T21:25:41;12.33;;;6.27;;
70369;SDS011;57790;51.356;-2.906;2022-09-29T21:28:46;13.57;;;6.47;;
70369;SDS011;57790;51.356;-2.906;2022-09-29T21:31:50;13.60;;;6.40;;
70369;SDS011;57790;51.356;-2.906;2022-09-29T21:34:51;12.13;;;6.43;;
70369;SDS011;57790;51.356;-2.906;2022-09-29T21:37:51;15.23;;;6.77;;
70369;SDS011;57790;51.356;-2.906;2022-09-29T21:40:53;13.55;;;7.03;;
70369;SDS011;57790;51.356;-2.906;2022-09-29T21:43:54;15.60;;;6.97;;